createdAt,value
2022-10-31T00:01:40.691Z,7.95
2022-10-31T00:04:08.311Z,9.13
2022-10-31T00:06:35.930Z,8.63
2022-10-31T00:09:05.863Z,8.80
2022-10-31T00:11:33.911Z,11.20
2022-10-31T00:14:02.043Z,7.85
2022-10-31T00:16:31.051Z,9.00
2022-10-31T00:19:01.956Z,14.43
2022-10-31T00:21:31.272Z,9.88
2022-10-31T00:24:00.314Z,9.23
2022-10-31T00:26:32.340Z,9.20
2022-10-31T00:29:01.054Z,10.05
2022-10-31T00:31:29.600Z,8.38
2022-10-31T00:33:57.235Z,9.20
2022-10-31T00:36:27.887Z,12.02
2022-10-31T00:38:55.449Z,18.33
2022-10-31T00:41:23.249Z,8.43
2022-10-31T00:43:50.956Z,9.95
2022-10-31T00:46:18.471Z,6.47
2022-10-31T00:48:46.044Z,6.82
2022-10-31T00:51:13.888Z,6.78
2022-10-31T00:53:42.666Z,7.25
2022-10-31T00:56:10.653Z,9.30
2022-10-31T00:58:38.312Z,8.23
2022-10-31T01:01:06.142Z,6.88
2022-10-31T01:03:36.075Z,7.93
2022-10-31T01:06:10.789Z,9.77
2022-10-31T01:08:40.014Z,9.02
2022-10-31T01:11:16.250Z,7.55
2022-10-31T01:13:45.189Z,5.28
2022-10-31T01:16:16.833Z,5.82
2022-10-31T01:18:45.005Z,7.65
2022-10-31T01:21:19.904Z,6.20
2022-10-31T01:23:51.085Z,5.45
2022-10-31T01:26:27.538Z,4.88
2022-10-31T01:28:57.802Z,6.38
2022-10-31T01:31:29.822Z,6.18
2022-10-31T01:33:59.678Z,5.88
2022-10-31T01:36:39.139Z,6.30
2022-10-31T01:39:11.900Z,6.93
2022-10-31T01:41:43.316Z,5.78
2022-10-31T01:44:16.825Z,7.50
2022-10-31T01:46:53.025Z,6.47
2022-10-31T01:49:39.034Z,4.53
2022-10-31T01:52:17.544Z,7.85
2022-10-31T01:54:54.515Z,7.15
2022-10-31T01:57:23.366Z,6.95
2022-10-31T02:00:00.972Z,4.25
2022-10-31T02:02:31.483Z,6.22
2022-10-31T02:05:03.558Z,6.68
2022-10-31T02:07:42.707Z,6.70
2022-10-31T02:10:10.431Z,5.80
2022-10-31T02:12:40.699Z,8.00
2022-10-31T02:15:10.088Z,7.28
2022-10-31T02:17:37.671Z,7.15
2022-10-31T02:20:21.183Z,11.20
2022-10-31T02:23:14.499Z,4.75
2022-10-31T02:25:47.848Z,5.90
2022-10-31T02:28:48.614Z,5.18
2022-10-31T02:31:56.770Z,5.40
2022-10-31T02:34:52.185Z,5.22
2022-10-31T02:38:09.932Z,8.73
2022-10-31T02:41:16.480Z,6.78
2022-10-31T02:44:02.183Z,5.43
2022-10-31T02:46:39.611Z,6.10
2022-10-31T02:49:47.719Z,5.72
2022-10-31T02:52:31.438Z,4.00
2022-10-31T02:55:31.443Z,6.93
2022-10-31T03:01:11.100Z,6.03
2022-10-31T03:03:52.124Z,5.07
2022-10-31T03:06:38.936Z,6.70
2022-10-31T03:09:47.285Z,5.13
2022-10-31T03:12:30.603Z,3.65
2022-10-31T03:15:44.735Z,3.80
2022-10-31T03:18:27.791Z,4.93
2022-10-31T03:21:11.251Z,7.28
2022-10-31T03:23:40.877Z,5.95
2022-10-31T03:26:10.901Z,3.72
2022-10-31T03:29:06.473Z,4.93
2022-10-31T03:31:49.237Z,3.88
2022-10-31T03:34:19.987Z,4.85
2022-10-31T03:36:54.339Z,3.90
2022-10-31T03:39:24.425Z,6.22
2022-10-31T03:42:07.247Z,5.43
2022-10-31T03:44:37.091Z,3.85
2022-10-31T03:47:05.690Z,4.50
2022-10-31T03:49:34.518Z,3.40
2022-10-31T03:52:38.579Z,5.05
2022-10-31T03:55:23.186Z,4.03
2022-10-31T03:58:02.027Z,4.90
2022-10-31T04:00:32.688Z,4.65
2022-10-31T04:03:12.278Z,5.18
2022-10-31T04:05:47.278Z,3.80
2022-10-31T04:08:20.392Z,5.07
2022-10-31T04:10:51.268Z,4.25
2022-10-31T04:13:27.621Z,6.38
2022-10-31T04:16:14.213Z,4.63
2022-10-31T04:18:44.972Z,3.67
2022-10-31T04:21:12.466Z,3.72
2022-10-31T04:23:39.961Z,4.95
2022-10-31T04:28:53.336Z,5.35
2022-10-31T04:31:21.119Z,5.97
2022-10-31T04:33:50.194Z,3.60
2022-10-31T04:36:21.438Z,3.35
2022-10-31T04:38:49.594Z,4.47
2022-10-31T04:41:32.425Z,4.65
2022-10-31T04:44:02.762Z,4.45
2022-10-31T04:46:30.207Z,3.72
2022-10-31T04:48:59.437Z,4.45
2022-10-31T04:51:27.086Z,3.78
2022-10-31T04:53:54.760Z,4.80
2022-10-31T04:56:25.379Z,4.53
2022-10-31T04:58:58.205Z,5.10
2022-10-31T05:01:26.860Z,5.40
2022-10-31T05:03:56.338Z,4.95
2022-10-31T05:06:24.365Z,4.88
2022-10-31T05:08:52.321Z,3.72
2022-10-31T05:11:20.678Z,4.25
2022-10-31T05:13:48.059Z,3.47
2022-10-31T05:16:15.634Z,3.40
2022-10-31T05:19:15.302Z,4.45
2022-10-31T05:22:14.795Z,4.70
2022-10-31T05:24:42.507Z,6.55
2022-10-31T05:27:11.014Z,4.82
2022-10-31T05:29:38.569Z,3.63
2022-10-31T05:32:06.295Z,4.72
2022-10-31T05:34:52.382Z,4.88
2022-10-31T05:37:59.439Z,5.88
2022-10-31T05:40:28.759Z,5.20
2022-10-31T05:42:59.666Z,3.83
2022-10-31T05:45:27.840Z,5.05
2022-10-31T05:48:03.272Z,3.35
2022-10-31T05:51:06.636Z,5.30
2022-10-31T05:53:34.881Z,5.90
2022-10-31T05:56:02.354Z,4.30
2022-10-31T05:58:30.545Z,6.05
2022-10-31T06:01:05.520Z,3.60
2022-10-31T06:03:34.136Z,3.70
2022-10-31T06:06:04.235Z,3.92
2022-10-31T06:08:38.543Z,4.43
2022-10-31T06:11:13.337Z,3.72
2022-10-31T06:13:59.402Z,5.13
2022-10-31T06:16:34.836Z,4.22
2022-10-31T06:19:18.185Z,4.47
2022-10-31T06:21:45.725Z,3.58
2022-10-31T06:24:13.347Z,5.82
2022-10-31T06:27:00.921Z,3.95
2022-10-31T06:29:28.857Z,3.75
2022-10-31T06:32:02.903Z,3.67
2022-10-31T06:34:32.161Z,3.88
2022-10-31T06:36:59.773Z,4.68
2022-10-31T06:39:29.584Z,4.47
2022-10-31T06:41:57.116Z,6.03
2022-10-31T06:44:24.921Z,6.07
2022-10-31T06:46:55.068Z,5.15
2022-10-31T06:49:51.639Z,5.35
2022-10-31T06:52:24.541Z,4.25
2022-10-31T06:54:52.922Z,4.20
2022-10-31T06:57:21.676Z,5.45
2022-10-31T06:59:49.023Z,5.25
2022-10-31T07:02:24.712Z,5.05
2022-10-31T07:04:52.763Z,3.42
2022-10-31T07:07:22.671Z,6.63
2022-10-31T07:09:51.501Z,5.75
2022-10-31T07:12:30.309Z,3.97
2022-10-31T07:15:00.356Z,4.00
2022-10-31T07:17:30.029Z,3.63
2022-10-31T07:20:00.572Z,4.70
2022-10-31T07:22:37.687Z,4.10
2022-10-31T07:25:08.645Z,6.68
2022-10-31T07:27:55.015Z,5.95
2022-10-31T07:30:24.023Z,4.57
2022-10-31T07:32:55.254Z,6.50
2022-10-31T07:35:29.241Z,3.72
2022-10-31T07:38:13.847Z,5.30
2022-10-31T07:40:43.172Z,5.82
2022-10-31T07:43:14.459Z,4.72
2022-10-31T07:46:12.642Z,3.70
2022-10-31T07:49:03.619Z,3.95
2022-10-31T07:51:51.343Z,4.45
2022-10-31T07:54:37.015Z,4.70
2022-10-31T07:57:04.754Z,5.47
2022-10-31T07:59:32.525Z,3.92
2022-10-31T08:02:01.285Z,6.78
2022-10-31T08:04:31.801Z,4.53
2022-10-31T08:07:25.572Z,6.15
2022-10-31T08:10:00.494Z,4.03
2022-10-31T08:12:31.740Z,4.95
2022-10-31T08:14:59.394Z,5.30
2022-10-31T08:17:26.810Z,4.78
2022-10-31T08:19:59.590Z,4.43
2022-10-31T08:22:39.881Z,5.30
2022-10-31T08:25:10.503Z,4.38
2022-10-31T08:27:38.326Z,4.93
2022-10-31T08:30:06.710Z,3.50
2022-10-31T08:32:35.166Z,5.18
2022-10-31T08:35:20.909Z,5.43
2022-10-31T08:38:08.951Z,7.32
2022-10-31T08:40:38.948Z,5.32
2022-10-31T08:43:18.108Z,7.95
2022-10-31T08:45:49.702Z,8.95
2022-10-31T08:48:23.611Z,5.93
2022-10-31T08:50:52.118Z,9.40
2022-10-31T08:53:20.874Z,7.30
2022-10-31T08:55:57.809Z,8.10
2022-10-31T08:58:27.433Z,5.80
2022-10-31T09:01:02.457Z,7.20
2022-10-31T09:03:32.322Z,9.65
2022-10-31T09:06:04.453Z,9.85
2022-10-31T09:08:33.524Z,8.40
2022-10-31T09:11:03.072Z,8.98
2022-10-31T09:13:49.168Z,10.95
2022-10-31T09:16:35.278Z,15.65
2022-10-31T09:19:05.191Z,12.55
2022-10-31T09:21:36.460Z,7.88
2022-10-31T09:24:04.309Z,14.25
2022-10-31T09:26:34.822Z,11.90
2022-10-31T09:31:44.544Z,8.85
2022-10-31T09:34:38.927Z,8.65
2022-10-31T09:37:09.416Z,6.93
2022-10-31T09:39:36.893Z,9.25
2022-10-31T09:42:49.550Z,9.82
2022-10-31T09:45:57.768Z,8.68
2022-10-31T09:49:32.977Z,11.45
2022-10-31T09:52:23.251Z,8.60
2022-10-31T09:55:22.505Z,9.55
2022-10-31T09:57:50.655Z,9.05
2022-10-31T10:00:22.859Z,14.07
2022-10-31T10:03:26.211Z,11.75
2022-10-31T10:06:15.835Z,19.40
2022-10-31T10:09:06.035Z,14.23
2022-10-31T10:12:40.150Z,15.30
2022-10-31T10:15:52.766Z,20.40
2022-10-31T10:18:39.123Z,29.80
2022-10-31T10:21:31.606Z,20.27
2022-10-31T10:24:32.564Z,26.27
2022-10-31T10:27:23.425Z,30.35
2022-10-31T10:30:18.953Z,27.73
2022-10-31T10:32:52.190Z,27.65
2022-10-31T10:35:46.103Z,22.33
2022-10-31T10:38:39.439Z,38.65
2022-10-31T10:41:18.102Z,23.10
2022-10-31T10:46:36.055Z,28.63
2022-10-31T10:49:19.032Z,21.23
2022-10-31T10:52:19.271Z,19.95
2022-10-31T10:55:07.091Z,27.10
2022-10-31T10:58:02.944Z,25.52
2022-10-31T11:00:50.942Z,23.85
2022-10-31T11:03:20.280Z,21.75
2022-10-31T11:06:02.956Z,21.10
2022-10-31T11:08:36.515Z,21.77
2022-10-31T11:11:30.778Z,23.23
2022-10-31T11:14:07.013Z,25.38
2022-10-31T11:16:42.270Z,19.77
2022-10-31T11:19:20.224Z,17.15
2022-10-31T11:21:53.615Z,20.80
2022-10-31T11:24:23.839Z,20.60
2022-10-31T11:26:52.690Z,17.35
2022-10-31T11:29:26.163Z,15.05
2022-10-31T11:31:57.236Z,24.48
2022-10-31T11:34:33.835Z,11.80
2022-10-31T11:37:29.465Z,16.25
2022-10-31T11:40:08.094Z,15.82
2022-10-31T11:42:41.971Z,18.55
2022-10-31T11:45:38.076Z,15.10
2022-10-31T11:48:24.845Z,16.77
2022-10-31T11:50:59.696Z,19.95
2022-10-31T11:56:16.427Z,15.13
2022-10-31T11:58:44.668Z,11.18
2022-10-31T12:01:28.346Z,16.30
2022-10-31T12:04:13.782Z,14.18
2022-10-31T12:06:44.426Z,16.08
2022-10-31T12:09:20.218Z,15.10
2022-10-31T12:12:26.860Z,15.50
2022-10-31T12:15:32.902Z,16.95
2022-10-31T12:21:21.351Z,13.82
2022-10-31T12:24:12.887Z,15.60
2022-10-31T12:27:28.447Z,15.23
2022-10-31T12:30:22.931Z,12.40
2022-10-31T12:33:08.280Z,16.48
2022-10-31T12:38:45.937Z,14.07
2022-10-31T12:41:39.469Z,9.48
2022-10-31T12:44:23.320Z,10.10
2022-10-31T12:47:05.381Z,11.90
2022-10-31T12:49:41.827Z,13.35
2022-10-31T12:52:20.462Z,11.65
2022-10-31T12:55:44.163Z,15.95
2022-10-31T12:58:33.786Z,12.38
2022-10-31T13:01:16.373Z,11.02
2022-10-31T13:04:22.994Z,14.80
2022-10-31T13:06:58.047Z,10.38
2022-10-31T13:12:11.324Z,10.63
2022-10-31T13:14:45.593Z,11.02
2022-10-31T13:17:35.554Z,13.38
2022-10-31T13:20:28.024Z,9.88
2022-10-31T13:23:17.789Z,9.93
2022-10-31T13:25:58.273Z,16.92
2022-10-31T13:29:18.737Z,7.50
2022-10-31T13:31:46.542Z,9.63
2022-10-31T13:34:26.358Z,12.07
2022-10-31T13:37:35.492Z,9.05
2022-10-31T13:40:22.443Z,11.93
2022-10-31T13:43:03.492Z,10.02
2022-10-31T13:45:31.049Z,12.18
2022-10-31T13:48:16.495Z,13.82
2022-10-31T13:50:56.998Z,13.88
2022-10-31T13:53:39.446Z,12.38
2022-10-31T13:56:19.662Z,10.82
2022-10-31T13:59:11.028Z,14.63
2022-10-31T14:01:48.265Z,9.18
2022-10-31T14:04:25.466Z,11.88
2022-10-31T14:07:10.850Z,11.45
2022-10-31T14:09:55.686Z,11.98
2022-10-31T14:13:30.390Z,13.48
2022-10-31T14:16:06.413Z,12.05
2022-10-31T14:18:48.979Z,13.13
2022-10-31T14:21:24.881Z,9.93
2022-10-31T14:23:55.080Z,10.00
2022-10-31T14:26:33.462Z,11.23
2022-10-31T14:29:14.193Z,12.20
2022-10-31T14:31:54.738Z,9.95
2022-10-31T14:34:33.518Z,14.77
2022-10-31T14:37:15.846Z,30.40
2022-10-31T14:40:22.779Z,25.77
2022-10-31T14:43:23.697Z,15.70
2022-10-31T14:46:21.872Z,21.38
2022-10-31T14:49:38.723Z,19.55
2022-10-31T14:52:10.181Z,11.57
2022-10-31T14:54:45.686Z,18.05
2022-10-31T14:57:32.139Z,16.65
2022-10-31T15:00:17.931Z,17.92
2022-10-31T15:03:16.609Z,17.90
2022-10-31T15:05:56.309Z,15.75
2022-10-31T15:08:45.242Z,23.88
2022-10-31T15:11:22.981Z,21.13
2022-10-31T15:14:01.062Z,25.13
2022-10-31T15:16:35.982Z,20.27
2022-10-31T15:21:48.982Z,19.88
2022-10-31T15:24:19.748Z,20.15
2022-10-31T15:26:55.834Z,20.98
2022-10-31T15:29:28.127Z,24.65
2022-10-31T15:32:00.187Z,20.50
2022-10-31T15:34:46.443Z,20.83
2022-10-31T15:37:16.845Z,20.27
2022-10-31T15:39:49.968Z,17.90
2022-10-31T15:42:29.956Z,19.75
2022-10-31T15:45:07.638Z,21.52
2022-10-31T15:47:35.181Z,18.63
2022-10-31T15:50:05.632Z,16.75
2022-10-31T15:52:45.384Z,17.10
2022-10-31T15:55:26.215Z,14.80
2022-10-31T15:57:59.647Z,16.48
2022-10-31T16:00:31.569Z,18.33
2022-10-31T16:03:17.170Z,21.95
2022-10-31T16:05:51.703Z,21.42
2022-10-31T16:08:37.587Z,28.92
2022-10-31T16:11:08.157Z,23.52
2022-10-31T16:13:41.500Z,23.65
2022-10-31T16:19:07.289Z,29.42
2022-10-31T16:21:39.568Z,23.80
2022-10-31T16:24:35.851Z,39.22
2022-10-31T16:27:20.452Z,22.20
2022-10-31T16:29:49.092Z,27.95
2022-10-31T16:32:27.835Z,26.35
2022-10-31T16:35:10.826Z,30.05
2022-10-31T16:37:42.512Z,24.17
2022-10-31T16:40:15.862Z,29.33
2022-10-31T16:42:45.099Z,28.00
2022-10-31T16:45:23.183Z,31.00
2022-10-31T16:47:52.507Z,33.08
2022-10-31T16:50:28.052Z,25.85
2022-10-31T16:55:55.857Z,27.67
2022-10-31T16:58:33.748Z,19.27
2022-10-31T17:01:04.002Z,27.98
2022-10-31T17:03:32.838Z,24.90
2022-10-31T17:06:00.354Z,25.17
2022-10-31T17:08:27.902Z,19.58
2022-10-31T17:10:58.284Z,17.08
2022-10-31T17:13:32.406Z,23.33
2022-10-31T17:16:02.036Z,20.08
2022-10-31T17:18:30.923Z,16.85
2022-10-31T17:21:01.666Z,18.70
2022-10-31T17:23:33.525Z,20.88
2022-10-31T17:26:00.903Z,20.10
2022-10-31T17:28:28.421Z,20.10
2022-10-31T17:30:59.525Z,23.42
2022-10-31T17:33:27.123Z,17.42
2022-10-31T17:35:54.895Z,20.50
2022-10-31T17:38:22.749Z,19.25
2022-10-31T17:40:50.611Z,25.38
2022-10-31T17:43:18.091Z,19.30
2022-10-31T17:45:45.514Z,33.58
2022-10-31T17:48:13.462Z,24.27
2022-10-31T17:50:40.939Z,21.60
2022-10-31T17:53:08.614Z,18.52
2022-10-31T17:55:37.034Z,24.55
2022-10-31T17:58:06.095Z,23.90
2022-10-31T18:00:34.236Z,28.17
2022-10-31T18:03:04.306Z,20.27
2022-10-31T18:05:32.687Z,17.85
2022-10-31T18:08:03.991Z,19.75
2022-10-31T18:10:32.297Z,24.42
2022-10-31T18:13:00.323Z,27.13
2022-10-31T18:15:28.186Z,18.42
2022-10-31T18:17:55.587Z,32.38
2022-10-31T18:20:23.505Z,23.58
2022-10-31T18:22:50.899Z,19.23
2022-10-31T18:25:18.593Z,22.45
2022-10-31T18:27:49.019Z,18.40
2022-10-31T18:30:16.428Z,15.90
2022-10-31T18:32:43.854Z,15.85
2022-10-31T18:35:11.304Z,17.98
2022-10-31T18:37:38.757Z,18.85
2022-10-31T18:40:07.156Z,22.77
2022-10-31T18:42:34.609Z,15.60
2022-10-31T18:45:11.352Z,15.50
2022-10-31T18:47:44.738Z,25.95
2022-10-31T18:50:12.679Z,15.82
2022-10-31T18:52:40.415Z,16.75
2022-10-31T18:55:08.511Z,20.25
2022-10-31T18:57:36.339Z,14.88
2022-10-31T19:00:06.322Z,17.40
2022-10-31T19:02:34.240Z,14.13
2022-10-31T19:05:01.792Z,15.38
2022-10-31T19:07:29.271Z,17.95
2022-10-31T19:09:57.081Z,12.52
2022-10-31T19:12:25.032Z,14.52
2022-10-31T19:14:52.685Z,15.68
2022-10-31T19:17:21.152Z,11.27
2022-10-31T19:19:48.667Z,14.93
2022-10-31T19:22:16.204Z,15.10
2022-10-31T19:24:43.673Z,14.20
2022-10-31T19:27:11.228Z,13.43
2022-10-31T19:29:38.647Z,22.35
2022-10-31T19:32:06.228Z,14.73
2022-10-31T19:34:33.521Z,15.23
2022-10-31T19:37:01.832Z,14.43
2022-10-31T19:39:29.099Z,15.75
2022-10-31T19:41:56.930Z,24.83
2022-10-31T19:44:24.525Z,32.35
2022-10-31T19:46:53.431Z,45.50
2022-10-31T19:49:21.712Z,41.38
2022-10-31T19:51:49.761Z,46.40
2022-10-31T19:54:17.907Z,37.55
2022-10-31T19:56:45.463Z,38.05
2022-10-31T19:59:13.383Z,35.65
2022-10-31T20:01:41.194Z,35.40
2022-10-31T20:04:08.767Z,32.53
2022-10-31T20:06:42.260Z,33.75
2022-10-31T20:09:15.808Z,30.15
2022-10-31T20:11:46.018Z,31.42
2022-10-31T20:14:17.444Z,27.48
2022-10-31T20:16:45.966Z,26.73
2022-10-31T20:19:13.566Z,21.85
2022-10-31T20:21:41.937Z,27.90
2022-10-31T20:24:11.456Z,28.35
2022-10-31T20:26:41.207Z,23.05
2022-10-31T20:29:13.367Z,21.50
2022-10-31T20:31:41.023Z,23.23
2022-10-31T20:34:08.873Z,21.30
2022-10-31T20:36:36.989Z,21.80
2022-10-31T20:39:04.707Z,18.33
2022-10-31T20:41:32.500Z,22.90
2022-10-31T20:43:59.986Z,20.20
2022-10-31T20:46:28.247Z,18.15
2022-10-31T20:48:56.132Z,14.90
2022-10-31T20:51:32.040Z,15.77
2022-10-31T20:54:00.832Z,14.15
2022-10-31T20:56:29.407Z,15.05
2022-10-31T20:58:58.324Z,16.13
2022-10-31T21:01:33.378Z,17.63
2022-10-31T21:04:00.828Z,15.95
2022-10-31T21:06:29.167Z,25.92
2022-10-31T21:08:57.804Z,23.83
2022-10-31T21:11:27.390Z,26.05
2022-10-31T21:13:56.491Z,21.83
2022-10-31T21:16:31.750Z,21.80
2022-10-31T21:19:01.394Z,15.88
2022-10-31T21:21:33.473Z,22.15
2022-10-31T21:24:12.664Z,18.42
2022-10-31T21:26:44.870Z,17.60
2022-10-31T21:29:14.430Z,17.08
2022-10-31T21:31:42.565Z,18.67
2022-10-31T21:34:10.845Z,19.42
2022-10-31T21:36:38.329Z,14.55
2022-10-31T21:39:07.936Z,13.00
2022-10-31T21:41:36.644Z,14.10
2022-10-31T21:44:04.824Z,20.02
2022-10-31T21:46:33.811Z,23.02
2022-10-31T21:49:04.055Z,18.48
2022-10-31T21:51:35.170Z,13.48
2022-10-31T21:54:21.349Z,17.02
2022-10-31T21:56:49.933Z,16.58
2022-10-31T21:59:17.420Z,11.75
2022-10-31T22:01:45.396Z,10.85
2022-10-31T22:04:12.726Z,11.13
2022-10-31T22:06:40.240Z,11.43
2022-10-31T22:09:10.690Z,13.80
2022-10-31T22:11:39.499Z,14.55
2022-10-31T22:14:07.806Z,15.30
2022-10-31T22:16:36.833Z,12.65
2022-10-31T22:19:06.228Z,16.55
2022-10-31T22:21:41.732Z,11.30
2022-10-31T22:24:10.518Z,10.52
2022-10-31T22:26:39.196Z,13.65
2022-10-31T22:29:13.828Z,10.93
2022-10-31T22:31:45.088Z,12.27
2022-10-31T22:34:15.457Z,10.57
2022-10-31T22:36:43.979Z,13.20
2022-10-31T22:39:13.806Z,9.27
2022-10-31T22:41:41.279Z,9.73
2022-10-31T22:44:09.022Z,10.00
2022-10-31T22:46:39.455Z,7.75
2022-10-31T22:49:14.914Z,11.82
2022-10-31T22:51:44.165Z,11.50
2022-10-31T22:54:17.965Z,11.57
2022-10-31T22:56:46.256Z,11.05
2022-10-31T22:59:15.986Z,9.82
2022-10-31T23:01:47.675Z,8.77
2022-10-31T23:04:16.962Z,10.35
2022-10-31T23:06:45.233Z,10.40
2022-10-31T23:09:16.203Z,8.73
2022-10-31T23:11:44.546Z,8.95
2022-10-31T23:14:18.877Z,8.55
2022-10-31T23:16:52.145Z,7.85
2022-10-31T23:19:23.438Z,11.27
2022-10-31T23:21:57.584Z,9.93
2022-10-31T23:24:53.006Z,8.75
2022-10-31T23:27:24.295Z,8.70
2022-10-31T23:29:59.640Z,8.50
2022-10-31T23:32:32.868Z,8.48
2022-10-31T23:35:12.091Z,8.90
2022-10-31T23:37:39.930Z,9.20
2022-10-31T23:40:08.929Z,16.55
2022-10-31T23:42:36.818Z,9.13
2022-10-31T23:45:04.870Z,7.60
2022-10-31T23:47:32.562Z,9.93
2022-10-31T23:49:59.886Z,7.38
2022-10-31T23:52:27.390Z,8.73
2022-10-31T23:54:55.097Z,9.60
2022-10-31T23:57:22.608Z,7.45
2022-10-31T23:59:50.406Z,8.25
